createdAt,value
2022-08-17T00:06:13.260Z,0.00
2022-08-17T00:07:11.980Z,0.00
2022-08-17T00:12:34.686Z,0.00
2022-08-17T00:17:37.663Z,0.00
2022-08-17T00:19:08.448Z,0.00
2022-08-17T00:23:22.422Z,0.00
2022-08-17T00:26:45.170Z,0.00
2022-08-17T00:34:02.156Z,0.00
2022-08-17T00:38:40.140Z,0.00
2022-08-17T00:51:20.241Z,0.00
2022-08-17T00:58:40.885Z,0.00
2022-08-17T01:01:47.329Z,0.00
2022-08-17T01:06:42.775Z,0.00
2022-08-17T01:25:30.328Z,0.00
2022-08-17T01:46:08.419Z,0.00
2022-08-17T02:46:36.864Z,0.00
2022-08-17T02:57:22.304Z,0.00
2022-08-17T02:58:35.947Z,0.00
2022-08-17T03:04:25.724Z,0.00
2022-08-17T03:10:18.720Z,0.00
2022-08-17T03:37:18.831Z,0.00
2022-08-17T04:07:37.134Z,0.00
2022-08-17T04:32:59.432Z,0.00
2022-08-17T04:37:19.927Z,5.62
2022-08-17T04:40:43.927Z,5.62
2022-08-17T04:48:57.169Z,11.25
2022-08-17T04:58:13.829Z,16.88
2022-08-17T05:06:35.590Z,16.88
2022-08-17T05:24:43.060Z,22.50
2022-08-17T05:27:06.014Z,28.12
2022-08-17T05:37:52.151Z,45.00
2022-08-17T05:38:26.623Z,45.00
2022-08-17T05:39:22.275Z,45.00
2022-08-17T05:40:45.176Z,45.00
2022-08-17T05:41:25.608Z,45.00
2022-08-17T05:42:21.385Z,45.00
2022-08-17T05:52:07.086Z,50.62
2022-08-17T06:03:45.241Z,50.62
2022-08-17T06:04:36.170Z,50.62
2022-08-17T06:05:35.462Z,50.62
2022-08-17T06:06:33.540Z,50.62
2022-08-17T06:07:33.612Z,50.62
2022-08-17T06:08:35.252Z,50.62
2022-08-17T06:09:34.057Z,50.62
2022-08-17T06:10:33.563Z,50.62
2022-08-17T06:11:33.545Z,50.62
2022-08-17T06:12:35.166Z,50.62
2022-08-17T06:13:33.573Z,50.62
2022-08-17T06:14:33.513Z,50.62
2022-08-17T06:15:33.467Z,56.25
2022-08-17T06:16:34.839Z,56.25
2022-08-17T06:17:33.444Z,56.25
2022-08-17T06:18:33.503Z,56.25
2022-08-17T06:19:34.224Z,61.88
2022-08-17T06:20:33.508Z,61.88
2022-08-17T06:21:33.481Z,67.50
2022-08-17T06:22:33.714Z,73.12
2022-08-17T06:23:33.481Z,78.75
2022-08-17T06:24:34.751Z,78.75
2022-08-17T06:25:34.159Z,78.75
2022-08-17T06:26:34.553Z,78.75
2022-08-17T06:27:33.326Z,78.75
2022-08-17T06:28:33.373Z,78.75
2022-08-17T06:29:33.309Z,78.75
2022-08-17T06:30:57.360Z,84.38
2022-08-17T06:31:34.279Z,84.38
2022-08-17T06:32:34.211Z,84.38
2022-08-17T06:33:33.269Z,84.38
2022-08-17T06:34:33.221Z,90.00
2022-08-17T06:35:34.209Z,90.00
2022-08-17T06:36:34.021Z,90.00
2022-08-17T06:37:33.199Z,90.00
2022-08-17T06:38:37.523Z,90.00
2022-08-17T06:39:35.014Z,95.62
2022-08-17T06:40:33.175Z,95.62
2022-08-17T06:41:33.171Z,95.62
2022-08-17T06:43:02.629Z,95.62
2022-08-17T06:43:34.169Z,101.25
2022-08-17T06:44:43.237Z,101.25
2022-08-17T06:45:34.165Z,101.25
2022-08-17T06:46:33.105Z,101.25
2022-08-17T06:47:33.897Z,101.25
2022-08-17T06:48:33.087Z,101.25
2022-08-17T06:49:33.109Z,101.25
2022-08-17T06:50:37.637Z,101.25
2022-08-17T06:51:36.666Z,101.25
2022-08-17T06:52:45.883Z,106.88
2022-08-17T06:53:34.045Z,106.88
2022-08-17T06:54:36.847Z,106.88
2022-08-17T06:55:37.730Z,106.88
2022-08-17T06:56:53.354Z,106.88
2022-08-17T06:57:33.990Z,112.50
2022-08-17T06:58:33.765Z,112.50
2022-08-17T06:59:54.213Z,112.50
2022-08-17T07:00:33.999Z,106.88
2022-08-17T07:01:33.018Z,106.88
2022-08-17T07:02:51.331Z,106.88
2022-08-17T07:03:33.938Z,101.25
2022-08-17T07:04:33.571Z,101.25
2022-08-17T07:05:32.915Z,101.25
2022-08-17T07:06:32.912Z,101.25
2022-08-17T07:07:34.680Z,95.62
2022-08-17T07:08:34.855Z,95.62
2022-08-17T07:09:33.661Z,90.00
2022-08-17T07:10:32.858Z,90.00
2022-08-17T07:11:32.851Z,90.00
2022-08-17T07:12:32.821Z,90.00
2022-08-17T07:13:32.842Z,90.00
2022-08-17T07:14:32.792Z,90.00
2022-08-17T07:15:32.773Z,90.00
2022-08-17T07:16:33.583Z,95.62
2022-08-17T07:17:46.742Z,95.62
2022-08-17T07:18:33.763Z,95.62
2022-08-17T07:19:32.762Z,95.62
2022-08-17T07:20:32.724Z,101.25
2022-08-17T07:21:32.714Z,101.25
2022-08-17T07:22:50.316Z,101.25
2022-08-17T07:23:35.557Z,101.25
2022-08-17T07:24:32.701Z,101.25
2022-08-17T07:25:32.682Z,106.88
2022-08-17T07:26:32.667Z,106.88
2022-08-17T07:27:32.667Z,106.88
2022-08-17T07:28:32.667Z,106.88
2022-08-17T07:29:34.402Z,106.88
2022-08-17T07:30:44.652Z,106.88
2022-08-17T07:31:33.639Z,106.88
2022-08-17T07:32:32.655Z,101.25
2022-08-17T07:33:32.648Z,101.25
2022-08-17T07:34:35.322Z,101.25
2022-08-17T07:35:40.747Z,101.25
2022-08-17T07:36:38.152Z,101.25
2022-08-17T07:37:33.375Z,101.25
2022-08-17T07:38:34.903Z,101.25
2022-08-17T07:39:58.809Z,101.25
2022-08-17T07:40:33.554Z,101.25
2022-08-17T07:41:58.049Z,101.25
2022-08-17T07:42:36.121Z,101.25
2022-08-17T07:43:32.483Z,101.25
2022-08-17T07:44:32.462Z,101.25
2022-08-17T07:45:32.443Z,101.25
2022-08-17T07:46:32.444Z,106.88
2022-08-17T07:47:34.567Z,106.88
2022-08-17T07:48:32.424Z,106.88
2022-08-17T07:49:32.419Z,106.88
2022-08-17T07:50:32.411Z,106.88
2022-08-17T07:51:32.625Z,106.88
2022-08-17T07:52:50.843Z,106.88
2022-08-17T07:53:33.412Z,106.88
2022-08-17T07:54:32.366Z,106.88
2022-08-17T07:55:32.340Z,106.88
2022-08-17T07:56:32.565Z,106.88
2022-08-17T07:57:32.325Z,106.88
2022-08-17T07:58:32.316Z,106.88
2022-08-17T07:59:33.613Z,112.50
2022-08-17T08:00:32.991Z,112.50
2022-08-17T08:01:41.834Z,118.12
2022-08-17T08:02:33.814Z,118.12
2022-08-17T08:03:32.296Z,118.12
2022-08-17T08:05:50.779Z,118.12
2022-08-17T08:06:33.215Z,118.12
2022-08-17T08:07:32.234Z,118.12
2022-08-17T08:08:32.219Z,123.75
2022-08-17T08:09:32.199Z,123.75
2022-08-17T08:10:32.179Z,123.75
2022-08-17T08:11:32.165Z,123.75
2022-08-17T08:12:33.717Z,123.75
2022-08-17T08:13:32.175Z,123.75
2022-08-17T08:14:32.130Z,123.75
2022-08-17T08:15:32.133Z,129.38
2022-08-17T08:16:32.127Z,129.38
2022-08-17T08:17:32.105Z,129.38
2022-08-17T08:18:53.773Z,129.38
2022-08-17T08:19:33.083Z,129.38
2022-08-17T08:20:37.761Z,135.00
2022-08-17T08:21:33.100Z,135.00
2022-08-17T08:22:32.046Z,135.00
2022-08-17T08:23:32.068Z,135.00
2022-08-17T08:24:32.016Z,135.00
2022-08-17T08:25:32.051Z,135.00
2022-08-17T08:26:32.818Z,135.00
2022-08-17T08:27:32.002Z,135.00
2022-08-17T08:28:31.986Z,129.38
2022-08-17T08:29:31.987Z,129.38
2022-08-17T08:30:33.093Z,129.38
2022-08-17T08:31:31.971Z,129.38
2022-08-17T08:32:31.947Z,129.38
2022-08-17T08:33:31.930Z,129.38
2022-08-17T08:34:45.031Z,129.38
2022-08-17T08:35:47.592Z,129.38
2022-08-17T08:36:57.038Z,129.38
2022-08-17T08:37:37.874Z,135.00
2022-08-17T08:38:32.907Z,135.00
2022-08-17T08:39:31.908Z,140.62
2022-08-17T08:40:31.877Z,140.62
2022-08-17T08:41:31.855Z,146.25
2022-08-17T08:42:31.825Z,151.88
2022-08-17T08:43:31.826Z,151.88
2022-08-17T08:45:00.415Z,157.50
2022-08-17T08:45:32.793Z,163.12
2022-08-17T08:46:31.785Z,163.12
2022-08-17T08:47:31.784Z,163.12
2022-08-17T08:48:56.920Z,157.50
2022-08-17T08:50:01.358Z,157.50
2022-08-17T08:50:38.172Z,151.88
2022-08-17T08:51:32.772Z,146.25
2022-08-17T08:52:31.727Z,140.62
2022-08-17T08:53:31.725Z,140.62
2022-08-17T08:54:31.695Z,129.38
2022-08-17T08:55:31.721Z,123.75
2022-08-17T08:56:31.696Z,118.12
2022-08-17T08:57:34.499Z,112.50
2022-08-17T08:58:41.602Z,106.88
2022-08-17T08:59:32.647Z,106.88
2022-08-17T09:00:31.644Z,106.88
2022-08-17T09:01:31.675Z,112.50
2022-08-17T09:02:34.873Z,118.12
2022-08-17T09:03:51.908Z,129.38
2022-08-17T09:04:40.753Z,135.00
2022-08-17T09:05:32.586Z,140.62
2022-08-17T09:06:33.572Z,151.88
2022-08-17T09:07:32.565Z,157.50
2022-08-17T09:08:31.553Z,180.00
2022-08-17T09:09:31.557Z,168.75
2022-08-17T09:10:31.533Z,174.38
2022-08-17T09:11:31.533Z,191.25
2022-08-17T09:12:31.504Z,180.00
2022-08-17T09:13:31.533Z,174.38
2022-08-17T09:14:31.496Z,168.75
2022-08-17T09:15:32.465Z,163.12
2022-08-17T09:16:31.455Z,157.50
2022-08-17T09:17:31.553Z,163.12
2022-08-17T09:19:02.257Z,157.50
2022-08-17T09:19:32.435Z,151.88
2022-08-17T09:20:31.416Z,146.25
2022-08-17T09:21:33.721Z,135.00
2022-08-17T09:22:31.499Z,129.38
2022-08-17T09:23:31.388Z,123.75
2022-08-17T09:24:31.387Z,123.75
2022-08-17T09:25:31.371Z,129.38
2022-08-17T09:26:31.348Z,129.38
2022-08-17T09:27:31.346Z,135.00
2022-08-17T09:28:31.318Z,135.00
2022-08-17T09:29:35.989Z,135.00
2022-08-17T09:30:34.000Z,140.62
2022-08-17T09:31:33.391Z,140.62
2022-08-17T09:32:31.298Z,140.62
2022-08-17T09:33:31.280Z,146.25
2022-08-17T09:34:33.127Z,146.25
2022-08-17T09:35:36.445Z,146.25
2022-08-17T09:36:32.261Z,146.25
2022-08-17T09:37:31.251Z,146.25
2022-08-17T09:38:32.714Z,146.25
2022-08-17T09:39:31.265Z,146.25
2022-08-17T09:40:31.230Z,146.25
2022-08-17T09:41:31.183Z,151.88
2022-08-17T09:42:31.184Z,157.50
2022-08-17T09:43:31.173Z,157.50
2022-08-17T09:44:31.197Z,163.12
2022-08-17T09:45:31.178Z,163.12
2022-08-17T09:46:31.157Z,163.12
2022-08-17T09:47:31.138Z,163.12
2022-08-17T09:48:31.137Z,157.50
2022-08-17T09:49:31.150Z,157.50
2022-08-17T09:51:01.625Z,157.50
2022-08-17T09:51:32.126Z,151.88
2022-08-17T09:52:31.077Z,151.88
2022-08-17T09:53:31.967Z,151.88
2022-08-17T09:54:39.879Z,151.88
2022-08-17T09:55:32.057Z,151.88
2022-08-17T09:56:31.023Z,151.88
2022-08-17T09:57:32.016Z,157.50
2022-08-17T09:58:31.013Z,157.50
2022-08-17T09:59:38.368Z,157.50
2022-08-17T10:00:31.988Z,151.88
2022-08-17T10:01:31.044Z,146.25
2022-08-17T10:02:30.994Z,140.62
2022-08-17T10:03:30.956Z,140.62
2022-08-17T10:04:30.944Z,135.00
2022-08-17T10:05:30.933Z,135.00
2022-08-17T10:06:30.913Z,129.38
2022-08-17T10:07:30.984Z,135.00
2022-08-17T10:08:30.894Z,135.00
2022-08-17T10:09:30.887Z,135.00
2022-08-17T10:10:32.427Z,135.00
2022-08-17T10:11:33.903Z,129.38
2022-08-17T10:12:30.852Z,123.75
2022-08-17T10:13:30.847Z,123.75
2022-08-17T10:14:36.387Z,118.12
2022-08-17T10:15:31.856Z,118.12
2022-08-17T10:16:30.864Z,118.12
2022-08-17T10:17:30.806Z,118.12
2022-08-17T10:18:33.361Z,118.12
2022-08-17T10:19:30.793Z,112.50
2022-08-17T10:20:30.777Z,106.88
2022-08-17T10:21:30.778Z,106.88
2022-08-17T10:22:34.825Z,101.25
2022-08-17T10:23:31.730Z,95.62
2022-08-17T10:24:30.734Z,90.00
2022-08-17T10:25:49.044Z,84.38
2022-08-17T10:26:43.081Z,84.38
2022-08-17T10:27:31.689Z,84.38
2022-08-17T10:28:30.710Z,78.75
2022-08-17T10:29:30.689Z,78.75
2022-08-17T10:30:31.701Z,78.75
2022-08-17T10:31:35.420Z,78.75
2022-08-17T10:32:31.652Z,78.75
2022-08-17T10:33:30.640Z,84.38
2022-08-17T10:34:34.177Z,84.38
2022-08-17T10:35:31.689Z,90.00
2022-08-17T10:36:30.623Z,90.00
2022-08-17T10:37:30.584Z,90.00
2022-08-17T10:38:30.574Z,90.00
2022-08-17T10:39:30.630Z,84.38
2022-08-17T10:40:30.630Z,84.38
2022-08-17T10:41:30.550Z,78.75
2022-08-17T10:42:33.071Z,78.75
2022-08-17T10:43:30.511Z,78.75
2022-08-17T10:44:38.455Z,78.75
2022-08-17T10:45:31.530Z,78.75
2022-08-17T10:46:31.799Z,73.12
2022-08-17T10:47:52.703Z,73.12
2022-08-17T10:48:31.468Z,73.12
2022-08-17T10:49:30.447Z,73.12
2022-08-17T10:50:30.469Z,78.75
2022-08-17T10:51:30.430Z,73.12
2022-08-17T10:52:30.430Z,73.12
2022-08-17T10:53:30.410Z,73.12
2022-08-17T10:54:30.410Z,73.12
2022-08-17T10:55:30.410Z,73.12
2022-08-17T10:56:30.382Z,73.12
2022-08-17T10:57:30.400Z,67.50
2022-08-17T10:58:30.363Z,67.50
2022-08-17T10:59:30.352Z,67.50
2022-08-17T11:00:30.361Z,61.88
2022-08-17T11:01:30.420Z,61.88
2022-08-17T11:02:30.314Z,61.88
2022-08-17T11:03:30.303Z,61.88
2022-08-17T11:04:30.294Z,56.25
2022-08-17T11:05:30.296Z,56.25
2022-08-17T11:06:30.276Z,50.62
2022-08-17T11:07:30.255Z,50.62
2022-08-17T11:08:30.260Z,50.62
2022-08-17T11:09:30.279Z,50.62
2022-08-17T11:10:30.245Z,45.00
2022-08-17T11:11:30.226Z,45.00
2022-08-17T11:12:30.217Z,45.00
2022-08-17T11:15:42.623Z,45.00
2022-08-17T11:17:53.499Z,50.62
2022-08-17T11:18:50.456Z,50.62
2022-08-17T11:28:40.448Z,61.88
2022-08-17T11:30:44.862Z,56.25
2022-08-17T11:33:53.768Z,50.62
2022-08-17T11:34:50.594Z,50.62
2022-08-17T11:38:14.040Z,50.62
2022-08-17T11:39:07.536Z,50.62
2022-08-17T11:40:09.645Z,50.62
2022-08-17T11:41:15.243Z,50.62
2022-08-17T11:42:09.774Z,50.62
2022-08-17T11:43:07.818Z,56.25
2022-08-17T11:44:14.217Z,56.25
2022-08-17T11:45:10.112Z,56.25
2022-08-17T11:46:09.226Z,56.25
2022-08-17T11:47:07.773Z,56.25
2022-08-17T11:48:27.214Z,56.25
2022-08-17T11:49:40.565Z,56.25
2022-08-17T11:51:26.421Z,50.62
2022-08-17T11:52:34.244Z,50.62
2022-08-17T11:53:32.013Z,45.00
2022-08-17T11:54:33.193Z,39.38
2022-08-17T11:55:35.508Z,39.38
2022-08-17T11:56:25.842Z,33.75
2022-08-17T11:57:28.222Z,33.75
2022-08-17T11:58:29.535Z,33.75
2022-08-17T11:59:25.111Z,33.75
2022-08-17T12:00:28.494Z,39.38
2022-08-17T12:01:24.269Z,39.38
2022-08-17T12:02:27.242Z,45.00
2022-08-17T12:09:16.114Z,61.88
2022-08-17T12:10:11.818Z,67.50
2022-08-17T12:11:10.712Z,73.12
2022-08-17T12:12:12.539Z,73.12
2022-08-17T12:14:35.678Z,67.50
2022-08-17T12:15:28.970Z,61.88
2022-08-17T12:16:21.882Z,56.25
2022-08-17T12:17:39.591Z,56.25
2022-08-17T12:18:29.231Z,50.62
2022-08-17T12:19:27.246Z,50.62
2022-08-17T12:22:10.193Z,50.62
2022-08-17T12:22:42.067Z,50.62
2022-08-17T12:23:38.193Z,50.62
2022-08-17T12:24:39.952Z,50.62
2022-08-17T12:25:46.478Z,56.25
2022-08-17T12:28:06.411Z,61.88
2022-08-17T12:28:46.930Z,67.50
2022-08-17T12:29:46.705Z,67.50
2022-08-17T12:32:08.702Z,73.12
2022-08-17T12:33:25.629Z,78.75
2022-08-17T12:34:09.789Z,84.38
2022-08-17T12:35:08.384Z,84.38
2022-08-17T12:36:08.365Z,90.00
2022-08-17T12:37:08.353Z,101.25
2022-08-17T12:38:26.655Z,112.50
2022-08-17T12:39:14.070Z,118.12
2022-08-17T12:40:12.012Z,135.00
2022-08-17T12:41:08.304Z,129.38
2022-08-17T12:42:08.358Z,129.38
2022-08-17T12:43:09.289Z,123.75
2022-08-17T12:44:08.277Z,123.75
2022-08-17T12:45:08.286Z,129.38
2022-08-17T12:46:13.375Z,140.62
2022-08-17T12:47:11.899Z,146.25
2022-08-17T12:48:08.227Z,135.00
2022-08-17T12:49:08.218Z,123.75
2022-08-17T12:50:29.547Z,112.50
2022-08-17T12:51:10.022Z,106.88
2022-08-17T12:52:08.260Z,101.25
2022-08-17T12:53:09.809Z,101.25
2022-08-17T12:54:09.800Z,101.25
2022-08-17T12:55:08.170Z,101.25
2022-08-17T12:56:08.145Z,101.25
2022-08-17T12:57:08.131Z,101.25
2022-08-17T12:58:13.617Z,101.25
2022-08-17T12:59:09.111Z,106.88
2022-08-17T13:00:08.100Z,106.88
2022-08-17T13:01:08.914Z,106.88
2022-08-17T13:02:08.993Z,106.88
2022-08-17T13:03:08.062Z,101.25
2022-08-17T13:04:08.053Z,101.25
2022-08-17T13:05:08.843Z,106.88
2022-08-17T13:06:10.384Z,106.88
2022-08-17T13:07:08.845Z,106.88
2022-08-17T13:08:11.883Z,106.88
2022-08-17T13:09:08.008Z,106.88
2022-08-17T13:10:09.514Z,112.50
2022-08-17T13:11:08.798Z,112.50
2022-08-17T13:12:08.866Z,112.50
2022-08-17T13:13:11.853Z,118.12
2022-08-17T13:14:07.965Z,123.75
2022-08-17T13:15:07.946Z,129.38
2022-08-17T13:16:08.757Z,129.38
2022-08-17T13:17:13.509Z,129.38
2022-08-17T13:18:08.734Z,129.38
2022-08-17T13:19:08.717Z,123.75
2022-08-17T13:20:08.907Z,118.12
2022-08-17T13:21:07.878Z,118.12
2022-08-17T13:22:07.944Z,118.12
2022-08-17T13:23:12.356Z,118.12
2022-08-17T13:24:07.863Z,123.75
2022-08-17T13:25:09.470Z,129.38
2022-08-17T13:26:09.456Z,140.62
2022-08-17T13:27:08.534Z,135.00
2022-08-17T13:28:09.461Z,135.00
2022-08-17T13:29:12.369Z,129.38
2022-08-17T13:30:08.572Z,123.75
2022-08-17T13:31:07.761Z,129.38
2022-08-17T13:32:13.124Z,135.00
2022-08-17T13:33:08.751Z,140.62
2022-08-17T13:34:10.390Z,140.62
2022-08-17T13:35:16.533Z,140.62
2022-08-17T13:36:10.792Z,146.25
2022-08-17T13:37:08.694Z,151.88
2022-08-17T13:38:07.700Z,157.50
2022-08-17T13:39:07.682Z,163.12
2022-08-17T13:40:09.494Z,174.38
2022-08-17T13:41:08.474Z,180.00
2022-08-17T13:42:13.514Z,185.62
2022-08-17T13:43:07.634Z,185.62
2022-08-17T13:44:07.624Z,185.62
2022-08-17T13:45:34.938Z,196.88
2022-08-17T13:46:10.640Z,208.12
2022-08-17T13:47:11.277Z,219.38
2022-08-17T13:48:18.103Z,236.25
2022-08-17T13:49:11.467Z,213.75
2022-08-17T13:50:10.747Z,253.12
2022-08-17T13:52:28.419Z,270.00
2022-08-17T13:53:23.759Z,241.88
2022-08-17T13:54:23.406Z,270.00
2022-08-17T13:55:19.966Z,343.12
2022-08-17T13:56:33.521Z,483.75
2022-08-17T13:57:23.116Z,506.25
2022-08-17T13:58:25.212Z,410.62
2022-08-17T13:59:52.634Z,298.12
2022-08-17T14:00:24.079Z,225.00
2022-08-17T14:01:34.847Z,208.12
2022-08-17T14:02:25.809Z,219.38
2022-08-17T14:03:28.020Z,225.00
2022-08-17T14:04:48.298Z,230.62
2022-08-17T14:05:25.303Z,253.12
2022-08-17T14:10:23.936Z,585.00
2022-08-17T14:11:33.819Z,309.38
2022-08-17T14:12:06.733Z,270.00
2022-08-17T14:13:10.604Z,208.12
2022-08-17T14:14:02.057Z,196.88
2022-08-17T14:15:01.119Z,208.12
2022-08-17T14:16:01.065Z,202.50
2022-08-17T14:17:01.080Z,196.88
2022-08-17T14:18:01.060Z,185.62
2022-08-17T14:19:01.065Z,163.12
2022-08-17T14:20:10.441Z,163.12
2022-08-17T14:21:01.829Z,163.12
2022-08-17T14:22:04.893Z,174.38
2022-08-17T14:23:03.747Z,174.38
2022-08-17T14:24:01.000Z,163.12
2022-08-17T14:25:05.601Z,157.50
2022-08-17T14:26:08.090Z,146.25
2022-08-17T14:27:00.969Z,140.62
2022-08-17T14:28:02.203Z,135.00
2022-08-17T14:29:01.762Z,135.00
2022-08-17T14:30:01.815Z,135.00
2022-08-17T14:31:02.549Z,135.00
2022-08-17T14:32:03.951Z,140.62
2022-08-17T14:33:01.581Z,140.62
2022-08-17T14:34:05.081Z,140.62
2022-08-17T14:35:04.641Z,146.25
2022-08-17T14:36:04.079Z,151.88
2022-08-17T14:37:01.665Z,163.12
2022-08-17T14:38:10.504Z,163.12
2022-08-17T14:39:05.483Z,168.75
2022-08-17T14:40:00.947Z,185.62
2022-08-17T14:41:00.811Z,213.75
2022-08-17T14:42:00.816Z,253.12
2022-08-17T14:43:02.506Z,320.62
2022-08-17T14:44:03.459Z,579.38
2022-08-17T14:45:02.635Z,540.00
2022-08-17T14:46:03.446Z,697.50
2022-08-17T14:47:00.788Z,596.25
2022-08-17T14:48:04.608Z,1018.12
2022-08-17T14:49:02.406Z,1074.38
2022-08-17T14:50:04.269Z,596.25
2022-08-17T14:51:03.925Z,635.62
2022-08-17T14:52:03.367Z,585.00
2022-08-17T14:53:01.929Z,922.50
2022-08-17T14:54:02.321Z,888.75
2022-08-17T14:55:03.899Z,450.00
2022-08-17T14:56:01.461Z,495.00
2022-08-17T14:57:23.058Z,528.75
2022-08-17T14:58:03.227Z,821.25
2022-08-17T14:59:07.551Z,1091.25
2022-08-17T15:00:06.874Z,658.12
2022-08-17T15:01:00.701Z,455.62
2022-08-17T15:02:02.309Z,455.62
2022-08-17T15:03:03.286Z,444.38
2022-08-17T15:04:04.275Z,371.25
2022-08-17T15:05:00.594Z,405.00
2022-08-17T15:06:04.064Z,489.38
2022-08-17T15:07:05.155Z,708.75
2022-08-17T15:08:05.164Z,838.12
2022-08-17T15:09:01.347Z,528.75
2022-08-17T15:10:05.869Z,534.38
2022-08-17T15:11:22.788Z,810.00
2022-08-17T15:12:07.092Z,810.00
2022-08-17T15:13:08.687Z,798.75
2022-08-17T15:14:02.130Z,720.00
2022-08-17T15:15:05.026Z,866.25
2022-08-17T15:16:00.478Z,365.62
2022-08-17T15:17:01.947Z,326.25
2022-08-17T15:18:00.751Z,303.75
2022-08-17T15:19:02.072Z,292.50
2022-08-17T15:20:02.142Z,281.25
2022-08-17T15:21:03.073Z,281.25
2022-08-17T15:22:05.495Z,275.62
2022-08-17T15:23:01.660Z,275.62
2022-08-17T15:24:01.912Z,303.75
2022-08-17T15:25:02.817Z,545.62
2022-08-17T15:26:00.372Z,523.12
2022-08-17T15:27:00.354Z,371.25
2022-08-17T15:28:00.379Z,208.12
2022-08-17T15:29:01.126Z,241.88
2022-08-17T15:30:00.355Z,196.88
2022-08-17T15:31:00.295Z,225.00
2022-08-17T15:32:01.126Z,191.25
2022-08-17T15:33:04.947Z,163.12
2022-08-17T15:34:00.310Z,135.00
2022-08-17T15:35:01.536Z,123.75
2022-08-17T15:36:01.059Z,112.50
2022-08-17T15:37:02.631Z,106.88
2022-08-17T15:38:07.927Z,95.62
2022-08-17T15:39:01.229Z,95.62
2022-08-17T15:40:00.356Z,90.00
2022-08-17T15:41:01.011Z,90.00
2022-08-17T15:42:03.059Z,90.00
2022-08-17T15:43:01.770Z,95.62
2022-08-17T15:44:00.195Z,101.25
2022-08-17T15:45:01.902Z,106.88
2022-08-17T15:46:00.965Z,112.50
2022-08-17T15:47:00.151Z,112.50
2022-08-17T15:48:01.519Z,123.75
2022-08-17T15:49:01.102Z,129.38
2022-08-17T15:50:02.880Z,129.38
2022-08-17T15:51:03.823Z,135.00
2022-08-17T15:52:01.745Z,140.62
2022-08-17T15:53:01.755Z,146.25
2022-08-17T15:54:04.503Z,151.88
2022-08-17T15:55:03.730Z,163.12
2022-08-17T15:56:00.053Z,174.38
2022-08-17T15:57:02.685Z,191.25
2022-08-17T15:58:00.833Z,208.12
2022-08-17T15:59:01.696Z,225.00
2022-08-17T16:00:00.121Z,236.25
2022-08-17T16:01:16.992Z,258.75
2022-08-17T16:03:09.821Z,270.00
2022-08-17T16:03:45.812Z,303.75
2022-08-17T16:04:06.817Z,393.75
2022-08-17T16:05:01.027Z,579.38
2022-08-17T16:06:00.818Z,365.62
2022-08-17T16:07:01.203Z,388.12
2022-08-17T16:08:02.562Z,652.50
2022-08-17T16:08:59.942Z,652.50
2022-08-17T16:09:59.979Z,646.88
2022-08-17T16:10:59.901Z,590.62
2022-08-17T16:12:03.701Z,382.50
2022-08-17T16:13:01.525Z,590.62
2022-08-17T16:13:59.912Z,641.25
2022-08-17T16:15:02.511Z,641.25
2022-08-17T16:15:59.850Z,495.00
2022-08-17T16:17:02.578Z,371.25
2022-08-17T16:17:59.842Z,416.25
2022-08-17T16:19:01.603Z,399.38
2022-08-17T16:19:59.844Z,388.12
2022-08-17T16:21:01.458Z,511.88
2022-08-17T16:22:04.774Z,573.75
2022-08-17T16:23:02.432Z,573.75
2022-08-17T16:23:59.795Z,286.88
2022-08-17T16:25:01.427Z,236.25
2022-08-17T16:25:59.784Z,225.00
2022-08-17T16:26:59.750Z,247.50
2022-08-17T16:28:03.319Z,405.00
2022-08-17T16:29:00.721Z,264.38
2022-08-17T16:30:03.239Z,230.62
2022-08-17T16:31:01.361Z,180.00
2022-08-17T16:32:03.294Z,185.62
2022-08-17T16:32:59.710Z,270.00
2022-08-17T16:34:17.696Z,225.00
2022-08-17T16:35:03.387Z,258.75
2022-08-17T16:36:02.299Z,230.62
2022-08-17T16:37:06.564Z,219.38
2022-08-17T16:38:02.281Z,180.00
2022-08-17T16:38:59.613Z,185.62
2022-08-17T16:40:02.357Z,208.12
2022-08-17T16:40:59.603Z,326.25
2022-08-17T16:41:59.601Z,326.25
2022-08-17T16:42:59.592Z,230.62
2022-08-17T16:43:59.586Z,202.50
2022-08-17T16:45:00.385Z,208.12
2022-08-17T16:46:01.909Z,202.50
2022-08-17T16:47:00.334Z,213.75
2022-08-17T16:47:59.537Z,247.50
2022-08-17T16:49:03.798Z,286.88
2022-08-17T16:50:04.187Z,309.38
2022-08-17T16:51:04.054Z,472.50
2022-08-17T16:51:59.497Z,506.25
2022-08-17T16:52:59.501Z,523.12
2022-08-17T16:54:00.727Z,534.38
2022-08-17T16:55:02.151Z,551.25
2022-08-17T16:56:02.573Z,568.12
2022-08-17T16:57:02.776Z,562.50
2022-08-17T16:57:59.446Z,399.38
2022-08-17T16:58:59.430Z,534.38
2022-08-17T17:00:01.199Z,540.00
2022-08-17T17:01:01.204Z,500.62
2022-08-17T17:01:59.397Z,298.12
2022-08-17T17:03:01.001Z,331.88
2022-08-17T17:04:01.344Z,230.62
2022-08-17T17:04:59.384Z,230.62
2022-08-17T17:06:01.282Z,230.62
2022-08-17T17:07:01.194Z,236.25
2022-08-17T17:08:01.090Z,376.88
2022-08-17T17:09:05.553Z,438.75
2022-08-17T17:09:59.304Z,455.62
2022-08-17T17:11:00.654Z,478.12
2022-08-17T17:12:01.962Z,478.12
2022-08-17T17:13:04.371Z,489.38
2022-08-17T17:14:01.026Z,495.00
2022-08-17T17:15:03.089Z,506.25
2022-08-17T17:15:59.245Z,506.25
2022-08-17T17:17:00.026Z,517.50
2022-08-17T17:18:01.947Z,506.25
2022-08-17T17:19:02.881Z,495.00
2022-08-17T17:20:01.868Z,506.25
2022-08-17T17:21:00.680Z,455.62
2022-08-17T17:22:00.419Z,416.25
2022-08-17T17:22:59.158Z,393.75
2022-08-17T17:23:59.168Z,258.75
2022-08-17T17:24:59.130Z,303.75
2022-08-17T17:26:03.050Z,326.25
2022-08-17T17:26:59.120Z,343.12
2022-08-17T17:28:00.635Z,303.75
2022-08-17T17:28:59.114Z,309.38
2022-08-17T17:30:01.722Z,331.88
2022-08-17T17:31:00.313Z,337.50
2022-08-17T17:32:02.735Z,343.12
2022-08-17T17:33:02.239Z,326.25
2022-08-17T17:34:03.726Z,303.75
2022-08-17T17:35:00.656Z,275.62
2022-08-17T17:35:59.805Z,247.50
2022-08-17T17:36:59.015Z,236.25
2022-08-17T17:37:59.015Z,264.38
2022-08-17T17:38:58.997Z,281.25
2022-08-17T17:39:59.879Z,270.00
2022-08-17T17:41:02.228Z,275.62
2022-08-17T17:41:59.776Z,264.38
2022-08-17T17:43:20.409Z,236.25
2022-08-17T17:44:01.805Z,236.25
2022-08-17T17:44:58.939Z,219.38
2022-08-17T17:45:58.962Z,219.38
2022-08-17T17:47:00.728Z,225.00
2022-08-17T17:47:58.924Z,230.62
2022-08-17T17:48:58.912Z,219.38
2022-08-17T17:50:00.586Z,202.50
2022-08-17T17:50:58.904Z,208.12
2022-08-17T17:52:10.872Z,202.50
2022-08-17T17:53:02.490Z,163.12
2022-08-17T17:53:58.853Z,146.25
2022-08-17T17:54:58.855Z,157.50
2022-08-17T17:55:58.853Z,90.00
2022-08-17T17:56:59.614Z,106.88
2022-08-17T17:57:58.800Z,129.38
2022-08-17T17:59:01.551Z,123.75
2022-08-17T17:59:58.794Z,118.12
2022-08-17T18:01:01.496Z,95.62
2022-08-17T18:01:58.808Z,67.50
2022-08-17T18:02:58.766Z,73.12
2022-08-17T18:03:58.735Z,73.12
2022-08-17T18:05:01.389Z,73.12
2022-08-17T18:06:00.637Z,67.50
2022-08-17T18:06:58.729Z,56.25
2022-08-17T18:08:04.702Z,56.25
2022-08-17T18:08:59.696Z,50.62
2022-08-17T18:10:01.360Z,45.00
2022-08-17T18:10:59.618Z,39.38
2022-08-17T18:11:59.671Z,39.38
2022-08-17T18:12:58.692Z,39.38
2022-08-17T18:13:59.532Z,39.38
2022-08-17T18:14:58.630Z,39.38
2022-08-17T18:15:59.421Z,33.75
2022-08-17T18:16:59.422Z,33.75
2022-08-17T18:18:02.480Z,28.12
2022-08-17T18:18:59.559Z,28.12
2022-08-17T18:20:00.175Z,28.12
2022-08-17T18:21:00.064Z,22.50
2022-08-17T18:21:58.563Z,22.50
2022-08-17T18:22:58.542Z,22.50
2022-08-17T18:24:03.493Z,22.50
2022-08-17T18:24:58.556Z,16.88
2022-08-17T18:25:58.550Z,16.88
2022-08-17T18:27:00.428Z,16.88
2022-08-17T18:27:58.514Z,16.88
2022-08-17T18:28:58.492Z,16.88
2022-08-17T18:29:58.510Z,16.88
2022-08-17T18:31:02.095Z,11.25
2022-08-17T18:31:58.467Z,11.25
2022-08-17T18:33:00.077Z,11.25
2022-08-17T18:34:02.433Z,11.25
2022-08-17T18:34:59.214Z,11.25
2022-08-17T18:35:58.732Z,5.62
2022-08-17T18:36:59.198Z,5.62
2022-08-17T18:37:58.409Z,5.62